Darstellungsparameter: Aktuell verwendete Einstellungen:
Skalierung der Graphiken ... ?
xyx+y,   Skalierungsfaktor:      Skalierung: Modus: x, Faktor: 1
Darstellungszeitraum ... ?
Vom - - bis: - -   Zeitraum: 27.05.2021 - 27.05.2021
Min/Max/Avg-Anzeige ... ?
Zeige MMA aktuell
Zeige MMA Monat
Zeige MMA alles
Zeige --A aktuell
Zeige --A Monat
Zeige --A alles
Keine MMA-Anzeige
MMA:
Average (ber die Originaldaten)
MMA-Basis: 27.05.2021 - 27.05.2021
Quicknavigation für Darstellung... ?
Tage:      1T, 2T, 3T, 5T -1T -2T -3T -5T +1T +2T +3T +5T
Wochen: 1W, 2W, 3W -1W -2W -3W +1W +2W +3W
Monate: 1M, 3M, 6M -1M -3M -6M +1M +3M +6M
Jahre:    1J, 3J, 5J, 10J -1J -3J -5J -10J +1J +3J +5J +10J
Nutze für die Darstellung ... ?
Originaldaten oder Mittelwerte auf ...
Stundenbasis Tagesbasis Wochenbasis
Monatsbasis Jahresbasis      Datenbasis: Original-Daten
Darstellen als:
Statistik (Auto) Statistik J:M      Darstellung:
Zur Graphik,    zurück zur Übersicht aller Sensoren.
 
Tabellarische Datenbersicht: ?
 
Sensor: Nr:Datum:Temp:Abs-Feuchte:Windchill:Wind:
Aussen-T/F 1 27-05-2021 00:00:00 9.1 C 7.9 g/m*3 7.93 C 8.1 km/h
2 27-05-2021 00:05:00 9.2 C 7.95 g/m*3 8.05 C 8.1 km/h
3 27-05-2021 00:10:00 9.3 C 8 g/m*3 7.85 C 9.7 km/h
4 27-05-2021 00:15:00 9.3 C 8 g/m*3 6.92 C 16.1 km/h
5 27-05-2021 00:20:00 9.4 C 8.05 g/m*3 7.04 C 16.1 km/h
6 27-05-2021 00:25:00 9.5 C 8.1 g/m*3 9.5 C 4.8 km/h
7 27-05-2021 00:30:00 9.5 C 8.01 g/m*3 8.09 C 9.7 km/h
8 27-05-2021 00:35:00 9.5 C 8.1 g/m*3 8.09 C 9.7 km/h
9 27-05-2021 00:40:00 9.6 C 8.15 g/m*3 9.6 C 4.8 km/h
10 27-05-2021 00:45:00 9.6 C 8.15 g/m*3 9.6 C 4.8 km/h
11 27-05-2021 00:50:00 9.6 C 8.15 g/m*3 7.94 C 11.3 km/h
12 27-05-2021 00:55:00 9.7 C 8.11 g/m*3 8.63 C 8.1 km/h
13 27-05-2021 01:00:00 9.8 C 8.16 g/m*3 8.75 C 8.1 km/h
14 27-05-2021 01:05:00 9.8 C 8.07 g/m*3 8.18 C 11.3 km/h
15 27-05-2021 01:10:00 9.9 C 8.12 g/m*3 8.3 C 11.3 km/h
16 27-05-2021 01:15:00 10 C 8.17 g/m*3 8.42 C 11.3 km/h
17 27-05-2021 01:20:00 10.1 C 8.13 g/m*3 8.8 C 9.7 km/h
18 27-05-2021 01:25:00 10.1 C 8.13 g/m*3 9.48 C 6.4 km/h
19 27-05-2021 01:30:00 10.1 C 8.13 g/m*3 9.1 C 8.1 km/h
20 27-05-2021 01:35:00 10.1 C 8.13 g/m*3 8.8 C 9.7 km/h
21 27-05-2021 01:40:00 10.1 C 8.13 g/m*3 9.1 C 8.1 km/h
22 27-05-2021 01:45:00 10.2 C 8.18 g/m*3 8.43 C 12.9 km/h
23 27-05-2021 01:50:00 10.2 C 8.18 g/m*3 8.66 C 11.3 km/h
24 27-05-2021 01:55:00 10.2 C 8.18 g/m*3 9.22 C 8.1 km/h
25 27-05-2021 02:00:00 10.2 C 8.18 g/m*3 8.43 C 12.9 km/h
Sensor: Nr:Datum:Temp:Abs-Feuchte:Windchill:Wind:
Aussen-T/F 26 27-05-2021 02:05:00 10.2 C 8.18 g/m*3 8.03 C 16.1 km/h
27 27-05-2021 02:10:00 10.2 C 8.18 g/m*3 9.22 C 8.1 km/h
28 27-05-2021 02:15:00 10.2 C 8.09 g/m*3 8.66 C 11.3 km/h
29 27-05-2021 02:20:00 10.2 C 8.18 g/m*3 8.92 C 9.7 km/h
30 27-05-2021 02:25:00 10.2 C 8.18 g/m*3 8.43 C 12.9 km/h
31 27-05-2021 02:30:00 10.2 C 8.18 g/m*3 8.66 C 11.3 km/h
32 27-05-2021 02:35:00 10.2 C 8.18 g/m*3 9.22 C 8.1 km/h
33 27-05-2021 02:40:00 10.2 C 8.09 g/m*3 8.22 C 14.5 km/h
34 27-05-2021 02:45:00 10.2 C 8.09 g/m*3 8.22 C 14.5 km/h
35 27-05-2021 02:50:00 10.3 C 8.14 g/m*3 9.04 C 9.7 km/h
36 27-05-2021 02:55:00 10.2 C 8.09 g/m*3 8.66 C 11.3 km/h
37 27-05-2021 03:00:00 10.3 C 8.14 g/m*3 8.78 C 11.3 km/h
38 27-05-2021 03:05:00 10.3 C 8.14 g/m*3 8.78 C 11.3 km/h
39 27-05-2021 03:10:00 10.3 C 8.14 g/m*3 8.34 C 14.5 km/h
40 27-05-2021 03:15:00 10.3 C 8.14 g/m*3 8.78 C 11.3 km/h
41 27-05-2021 03:20:00 10.3 C 8.14 g/m*3 7.82 C 19.3 km/h
42 27-05-2021 03:25:00 10.4 C 8.1 g/m*3 8.67 C 12.9 km/h
43 27-05-2021 03:30:00 10.4 C 8.1 g/m*3 8.11 C 17.7 km/h
44 27-05-2021 03:35:00 10.4 C 8.1 g/m*3 9.83 C 6.4 km/h
45 27-05-2021 03:40:00 10.4 C 8.1 g/m*3 8.47 C 14.5 km/h
46 27-05-2021 03:45:00 10.3 C 8.14 g/m*3 9.34 C 8.1 km/h
47 27-05-2021 03:50:00 10.3 C 8.14 g/m*3 9.72 C 6.4 km/h
48 27-05-2021 03:55:00 10.3 C 8.14 g/m*3 8.55 C 12.9 km/h
49 27-05-2021 04:00:00 10.3 C 8.14 g/m*3 9.34 C 8.1 km/h
50 27-05-2021 04:05:00 10.3 C 8.14 g/m*3 8.78 C 11.3 km/h
Sensor: Nr:Datum:Temp:Abs-Feuchte:Windchill:Wind:
Aussen-T/F 51 27-05-2021 04:10:00 10.2 C 8.09 g/m*3 9.22 C 8.1 km/h
52 27-05-2021 04:15:00 10.2 C 8.09 g/m*3 8.92 C 9.7 km/h
53 27-05-2021 04:20:00 10.2 C 8.18 g/m*3 8.92 C 9.7 km/h
54 27-05-2021 04:25:00 10.1 C 8.13 g/m*3 9.1 C 8.1 km/h
55 27-05-2021 04:30:00 10.1 C 8.13 g/m*3 9.48 C 6.4 km/h
56 27-05-2021 04:35:00 10.1 C 8.13 g/m*3 9.48 C 6.4 km/h
57 27-05-2021 04:40:00 10.1 C 8.13 g/m*3 9.48 C 6.4 km/h
58 27-05-2021 04:45:00 10.1 C 8.13 g/m*3 9.48 C 6.4 km/h
59 27-05-2021 04:50:00 10.1 C 8.13 g/m*3 9.48 C 6.4 km/h
60 27-05-2021 04:55:00 10.1 C 8.13 g/m*3 8.8 C 9.7 km/h
61 27-05-2021 05:00:00 10.1 C 8.13 g/m*3 8.8 C 9.7 km/h
62 27-05-2021 05:05:00 10.1 C 8.13 g/m*3 8.8 C 9.7 km/h
63 27-05-2021 05:10:00 10.1 C 8.04 g/m*3 8.54 C 11.3 km/h
64 27-05-2021 05:15:00 10.1 C 8.13 g/m*3 8.54 C 11.3 km/h
65 27-05-2021 05:20:00 10.1 C 8.04 g/m*3 8.8 C 9.7 km/h
66 27-05-2021 05:25:00 10.1 C 8.13 g/m*3 9.1 C 8.1 km/h
67 27-05-2021 05:30:00 10 C 8.08 g/m*3 8.19 C 12.9 km/h
68 27-05-2021 05:35:00 9.9 C 8.03 g/m*3 9.25 C 6.4 km/h
69 27-05-2021 05:40:00 9.9 C 8.12 g/m*3 8.87 C 8.1 km/h
70 27-05-2021 05:45:00 9.9 C 8.12 g/m*3 8.3 C 11.3 km/h
71 27-05-2021 05:50:00 9.9 C 8.12 g/m*3 8.06 C 12.9 km/h
72 27-05-2021 05:55:00 9.9 C 8.12 g/m*3 8.3 C 11.3 km/h
73 27-05-2021 06:00:00 9.9 C 8.12 g/m*3 9.9 C 4.8 km/h
74 27-05-2021 06:05:00 9.9 C 8.12 g/m*3 8.87 C 8.1 km/h
75 27-05-2021 06:10:00 9.9 C 8.12 g/m*3 9.25 C 6.4 km/h
Sensor: Nr:Datum:Temp:Abs-Feuchte:Windchill:Wind:
Aussen-T/F 76 27-05-2021 06:15:00 9.9 C 8.12 g/m*3 9.9 C 3.2 km/h
77 27-05-2021 06:20:00 9.9 C 8.12 g/m*3 8.87 C 8.1 km/h
78 27-05-2021 06:25:00 9.9 C 8.12 g/m*3 9.9 C 4.8 km/h
79 27-05-2021 06:30:00 10 C 8.17 g/m*3 9.37 C 6.4 km/h
80 27-05-2021 06:35:00 10 C 8.17 g/m*3 8.68 C 9.7 km/h
81 27-05-2021 06:40:00 10 C 8.17 g/m*3 10 C 4.8 km/h
82 27-05-2021 06:45:00 10 C 8.17 g/m*3 9.37 C 6.4 km/h
83 27-05-2021 06:50:00 10.1 C 8.23 g/m*3 8.31 C 12.9 km/h
84 27-05-2021 06:55:00 10.1 C 8.23 g/m*3 8.54 C 11.3 km/h
85 27-05-2021 07:00:00 10.2 C 8.28 g/m*3 9.22 C 8.1 km/h
86 27-05-2021 07:05:00 10.2 C 8.28 g/m*3 9.22 C 8.1 km/h
87 27-05-2021 07:10:00 10.2 C 8.28 g/m*3 9.22 C 8.1 km/h
88 27-05-2021 07:15:00 10.2 C 8.28 g/m*3 9.22 C 8.1 km/h
89 27-05-2021 07:20:00 10.2 C 8.28 g/m*3 10.2 C 4.8 km/h
90 27-05-2021 07:25:00 10.2 C 8.28 g/m*3 8.92 C 9.7 km/h
91 27-05-2021 07:30:00 10.2 C 8.28 g/m*3 9.22 C 8.1 km/h
92 27-05-2021 07:35:00 10.3 C 8.33 g/m*3 8.78 C 11.3 km/h
93 27-05-2021 07:40:00 10.3 C 8.33 g/m*3 10.3 C 4.8 km/h
94 27-05-2021 07:45:00 10.3 C 8.33 g/m*3 9.34 C 8.1 km/h
95 27-05-2021 07:50:00 10.3 C 8.33 g/m*3 9.72 C 6.4 km/h
96 27-05-2021 07:55:00 10.3 C 8.33 g/m*3 9.72 C 6.4 km/h
97 27-05-2021 08:00:00 10.3 C 8.33 g/m*3 8.78 C 11.3 km/h
98 27-05-2021 08:05:00 10.4 C 8.38 g/m*3 9.46 C 8.1 km/h
99 27-05-2021 08:10:00 10.5 C 8.34 g/m*3 9.28 C 9.7 km/h
100 27-05-2021 08:15:00 10.6 C 8.39 g/m*3 9.14 C 11.3 km/h
Sensor: Nr:Datum:Temp:Abs-Feuchte:Windchill:Wind:
Aussen-T/F 101 27-05-2021 08:20:00 10.6 C 8.39 g/m*3 10.06 C 6.4 km/h
102 27-05-2021 08:25:00 10.7 C 8.45 g/m*3 9.81 C 8.1 km/h
103 27-05-2021 08:30:00 10.7 C 8.45 g/m*3 9.04 C 12.9 km/h
104 27-05-2021 08:35:00 10.7 C 8.45 g/m*3 9.52 C 9.7 km/h
105 27-05-2021 08:40:00 10.7 C 8.45 g/m*3 9.52 C 9.7 km/h
106 27-05-2021 08:45:00 10.8 C 8.5 g/m*3 9.64 C 9.7 km/h
107 27-05-2021 08:50:00 10.9 C 8.55 g/m*3 9.76 C 9.7 km/h
108 27-05-2021 08:55:00 11.1 C 8.66 g/m*3 11.1 C 9.7 km/h
109 27-05-2021 09:00:00 11.1 C 8.56 g/m*3 11.1 C 11.3 km/h
110 27-05-2021 09:05:00 11.1 C 8.56 g/m*3 11.1 C 8.1 km/h
111 27-05-2021 09:10:00 11.2 C 8.62 g/m*3 11.2 C 9.7 km/h
112 27-05-2021 09:15:00 11.2 C 8.62 g/m*3 11.2 C 8.1 km/h
113 27-05-2021 09:20:00 11.2 C 8.72 g/m*3 11.2 C 9.7 km/h
114 27-05-2021 09:25:00 11.2 C 8.72 g/m*3 11.2 C 9.7 km/h
115 27-05-2021 09:30:00 11.3 C 8.67 g/m*3 11.3 C 8.1 km/h
116 27-05-2021 09:35:00 11.3 C 8.67 g/m*3 11.3 C 8.1 km/h
117 27-05-2021 09:40:00 11.4 C 8.72 g/m*3 11.4 C 11.3 km/h
118 27-05-2021 09:45:00 11.5 C 8.78 g/m*3 11.5 C 6.4 km/h
119 27-05-2021 09:50:00 11.8 C 8.95 g/m*3 11.8 C 9.7 km/h
120 27-05-2021 09:55:00 12.1 C 9.01 g/m*3 12.1 C 14.5 km/h
121 27-05-2021 10:00:00 12.3 C 9.12 g/m*3 12.3 C 9.7 km/h
122 27-05-2021 10:05:00 12.3 C 8.9 g/m*3 12.3 C 17.7 km/h
123 27-05-2021 10:10:00 12.3 C 9.01 g/m*3 12.3 C 14.5 km/h
124 27-05-2021 10:15:00 12.4 C 9.07 g/m*3 12.4 C 11.3 km/h
125 27-05-2021 10:20:00 12.4 C 9.07 g/m*3 12.4 C 9.7 km/h
Sensor: Nr:Datum:Temp:Abs-Feuchte:Windchill:Wind:
Aussen-T/F 126 27-05-2021 10:25:00 12.4 C 9.07 g/m*3 12.4 C 9.7 km/h
127 27-05-2021 10:30:00 12.3 C 9.01 g/m*3 12.3 C 12.9 km/h
128 27-05-2021 10:35:00 12.2 C 9.06 g/m*3 12.2 C 9.7 km/h
129 27-05-2021 10:40:00 12.2 C 9.17 g/m*3 12.2 C 9.7 km/h
130 27-05-2021 10:45:00 12.2 C 9.28 g/m*3 12.2 C 3.2 km/h
131 27-05-2021 10:50:00 12.3 C 9.34 g/m*3 12.3 C 11.3 km/h
132 27-05-2021 10:55:00 12.6 C 9.62 g/m*3 12.6 C 11.3 km/h
133 27-05-2021 11:00:00 12.8 C 9.52 g/m*3 12.8 C 12.9 km/h
134 27-05-2021 11:05:00 13 C 9.64 g/m*3 13 C 9.7 km/h
135 27-05-2021 11:10:00 13.2 C 9.53 g/m*3 13.2 C 12.9 km/h
136 27-05-2021 11:15:00 13.4 C 9.65 g/m*3 13.4 C 11.3 km/h
137 27-05-2021 11:20:00 13.4 C 9.53 g/m*3 13.4 C 12.9 km/h
138 27-05-2021 11:25:00 13.4 C 9.53 g/m*3 13.4 C 14.5 km/h
139 27-05-2021 11:30:00 13.3 C 9.13 g/m*3 13.3 C 12.9 km/h
140 27-05-2021 11:35:00 13.3 C 9.24 g/m*3 13.3 C 11.3 km/h
141 27-05-2021 11:40:00 13.4 C 9.18 g/m*3 13.4 C 12.9 km/h
142 27-05-2021 11:45:00 13.6 C 9.42 g/m*3 13.6 C 11.3 km/h
143 27-05-2021 11:50:00 13.6 C 9.42 g/m*3 13.6 C 9.7 km/h
144 27-05-2021 11:55:00 13.6 C 9.42 g/m*3 13.6 C 11.3 km/h
145 27-05-2021 12:00:00 13.6 C 9.53 g/m*3 13.6 C 12.9 km/h
146 27-05-2021 12:05:00 13.4 C 9.42 g/m*3 13.4 C 16.1 km/h
147 27-05-2021 12:10:00 13.3 C 9.47 g/m*3 13.3 C 9.7 km/h
148 27-05-2021 12:15:00 13.2 C 9.3 g/m*3 13.2 C 12.9 km/h
149 27-05-2021 12:20:00 13.3 C 9.24 g/m*3 13.3 C 11.3 km/h
150 27-05-2021 12:25:00 13.4 C 9.18 g/m*3 13.4 C 12.9 km/h
Sensor: Nr:Datum:Temp:Abs-Feuchte:Windchill:Wind:
Aussen-T/F 151 27-05-2021 12:30:00 13.4 C 8.95 g/m*3 13.4 C 12.9 km/h
152 27-05-2021 12:35:00 13.6 C 9.3 g/m*3 13.6 C 8.1 km/h
153 27-05-2021 12:40:00 13.7 C 9.12 g/m*3 13.7 C 9.7 km/h
154 27-05-2021 12:45:00 13.7 C 9.24 g/m*3 13.7 C 12.9 km/h
155 27-05-2021 12:50:00 13.5 C 9.01 g/m*3 13.5 C 11.3 km/h
156 27-05-2021 12:55:00 13.3 C 8.78 g/m*3 13.3 C 12.9 km/h
157 27-05-2021 13:00:00 13.3 C 9.01 g/m*3 13.3 C 11.3 km/h
158 27-05-2021 13:05:00 13.3 C 9.13 g/m*3 13.3 C 14.5 km/h
159 27-05-2021 13:10:00 13.3 C 9.24 g/m*3 13.3 C 16.1 km/h
160 27-05-2021 13:15:00 13.2 C 9.19 g/m*3 13.2 C 14.5 km/h
161 27-05-2021 13:20:00 13.1 C 9.24 g/m*3 13.1 C 12.9 km/h
162 27-05-2021 13:25:00 13.1 C 9.47 g/m*3 13.1 C 11.3 km/h
163 27-05-2021 13:30:00 13.1 C 9.47 g/m*3 13.1 C 12.9 km/h
164 27-05-2021 13:35:00 13.1 C 9.7 g/m*3 13.1 C 12.9 km/h
165 27-05-2021 13:40:00 13 C 9.53 g/m*3 13 C 12.9 km/h
166 27-05-2021 13:45:00 13.1 C 9.7 g/m*3 13.1 C 11.3 km/h
167 27-05-2021 13:50:00 13.2 C 9.76 g/m*3 13.2 C 9.7 km/h
168 27-05-2021 13:55:00 13.2 C 9.64 g/m*3 13.2 C 8.1 km/h
169 27-05-2021 14:00:00 13.2 C 9.64 g/m*3 13.2 C 9.7 km/h
170 27-05-2021 14:05:00 13.2 C 9.64 g/m*3 13.2 C 6.4 km/h
171 27-05-2021 14:10:00 13.3 C 9.7 g/m*3 13.3 C 9.7 km/h
172 27-05-2021 14:15:00 13.4 C 9.76 g/m*3 13.4 C 8.1 km/h
173 27-05-2021 14:20:00 13.6 C 9.77 g/m*3 13.6 C 9.7 km/h
174 27-05-2021 14:25:00 13.7 C 9.83 g/m*3 13.7 C 8.1 km/h
175 27-05-2021 14:30:00 13.8 C 9.65 g/m*3 13.8 C 11.3 km/h
Sensor: Nr:Datum:Temp:Abs-Feuchte:Windchill:Wind:
Aussen-T/F 176 27-05-2021 14:35:00 13.8 C 9.65 g/m*3 13.8 C 11.3 km/h
177 27-05-2021 14:40:00 13.8 C 9.53 g/m*3 13.8 C 14.5 km/h
178 27-05-2021 14:45:00 13.9 C 9.47 g/m*3 13.9 C 11.3 km/h
179 27-05-2021 14:50:00 13.9 C 9.59 g/m*3 13.9 C 9.7 km/h
180 27-05-2021 14:55:00 13.8 C 9.53 g/m*3 13.8 C 8.1 km/h
181 27-05-2021 15:00:00 13.7 C 9.35 g/m*3 13.7 C 9.7 km/h
182 27-05-2021 15:05:00 13.6 C 9.3 g/m*3 13.6 C 9.7 km/h
183 27-05-2021 15:10:00 13.6 C 9.42 g/m*3 13.6 C 9.7 km/h
184 27-05-2021 15:15:00 13.6 C 9.53 g/m*3 13.6 C 1.6 km/h
185 27-05-2021 15:20:00 13.6 C 9.65 g/m*3 13.6 C 6.4 km/h
186 27-05-2021 15:25:00 13.6 C 9.77 g/m*3 13.6 C 0 km/h
187 27-05-2021 15:30:00 13.7 C 10.07 g/m*3 13.7 C 1.6 km/h
188 27-05-2021 15:35:00 13.7 C 9.95 g/m*3 13.7 C 1.6 km/h
189 27-05-2021 15:40:00 13.7 C 9.83 g/m*3 13.7 C 1.6 km/h
190 27-05-2021 15:45:00 13.8 C 9.89 g/m*3 13.8 C 1.6 km/h
191 27-05-2021 15:50:00 13.8 C 9.77 g/m*3 13.8 C 0 km/h
192 27-05-2021 15:55:00 13.8 C 9.89 g/m*3 13.8 C 1.6 km/h
193 27-05-2021 16:00:00 13.8 C 10.25 g/m*3 13.8 C 0 km/h
194 27-05-2021 16:05:00 13.8 C 10.25 g/m*3 13.8 C 0 km/h
195 27-05-2021 16:10:00 13.7 C 10.18 g/m*3 13.7 C 1.6 km/h
196 27-05-2021 16:15:00 13.7 C 10.3 g/m*3 13.7 C 1.6 km/h
197 27-05-2021 16:20:00 13.6 C 10.36 g/m*3 13.6 C 1.6 km/h
198 27-05-2021 16:25:00 13.4 C 10.23 g/m*3 13.4 C 1.6 km/h
199 27-05-2021 16:30:00 13.3 C 10.17 g/m*3 13.3 C 0 km/h
200 27-05-2021 16:35:00 13.2 C 10.22 g/m*3 13.2 C 3.2 km/h
Sensor: Nr:Datum:Temp:Abs-Feuchte:Windchill:Wind:
Aussen-T/F 201 27-05-2021 16:40:00 13.3 C 10.51 g/m*3 13.3 C 3.2 km/h
202 27-05-2021 16:45:00 13.3 C 10.51 g/m*3 13.3 C 1.6 km/h
203 27-05-2021 16:50:00 13.3 C 10.51 g/m*3 13.3 C 0 km/h
204 27-05-2021 16:55:00 13.4 C 10.69 g/m*3 13.4 C 0 km/h
205 27-05-2021 17:00:00 13.3 C 10.51 g/m*3 13.3 C 1.6 km/h
206 27-05-2021 17:05:00 13.3 C 10.51 g/m*3 13.3 C 3.2 km/h
207 27-05-2021 17:10:00 13.3 C 10.51 g/m*3 13.3 C 0 km/h
208 27-05-2021 17:15:00 13.3 C 10.63 g/m*3 13.3 C 0 km/h
209 27-05-2021 17:20:00 13.3 C 10.51 g/m*3 13.3 C 1.6 km/h
210 27-05-2021 17:25:00 13.1 C 10.38 g/m*3 13.1 C 1.6 km/h
211 27-05-2021 17:30:00 12.9 C 10.26 g/m*3 12.9 C 0 km/h
212 27-05-2021 17:35:00 12.7 C 10.13 g/m*3 12.7 C 12.9 km/h
213 27-05-2021 17:40:00 12.5 C 10.11 g/m*3 12.5 C 3.2 km/h
214 27-05-2021 17:45:00 12.4 C 10.16 g/m*3 12.4 C 0 km/h
215 27-05-2021 17:50:00 12.4 C 10.16 g/m*3 12.4 C 0 km/h
216 27-05-2021 17:55:00 12.3 C 10.1 g/m*3 12.3 C 1.6 km/h
217 27-05-2021 18:00:00 12.3 C 10.1 g/m*3 12.3 C 0 km/h
218 27-05-2021 18:05:00 12.3 C 10.1 g/m*3 12.3 C 6.4 km/h
219 27-05-2021 18:10:00 12.3 C 10.1 g/m*3 12.3 C 4.8 km/h
220 27-05-2021 18:15:00 12.3 C 10.21 g/m*3 12.3 C 4.8 km/h
221 27-05-2021 18:20:00 12.3 C 10.21 g/m*3 12.3 C 3.2 km/h
222 27-05-2021 18:25:00 12.4 C 10.27 g/m*3 12.4 C 0 km/h
223 27-05-2021 18:30:00 12.6 C 10.4 g/m*3 12.6 C 0 km/h
224 27-05-2021 18:35:00 12.6 C 10.4 g/m*3 12.6 C 1.6 km/h
225 27-05-2021 18:40:00 12.6 C 10.4 g/m*3 12.6 C 3.2 km/h
Sensor: Nr:Datum:Temp:Abs-Feuchte:Windchill:Wind:
Aussen-T/F 226 27-05-2021 18:45:00 12.6 C 10.4 g/m*3 12.6 C 1.6 km/h
227 27-05-2021 18:50:00 12.6 C 10.4 g/m*3 12.6 C 3.2 km/h
228 27-05-2021 18:55:00 12.6 C 10.4 g/m*3 12.6 C 3.2 km/h
229 27-05-2021 19:00:00 12.4 C 10.27 g/m*3 12.4 C 0 km/h
230 27-05-2021 19:05:00 12.4 C 10.27 g/m*3 12.4 C 0 km/h
231 27-05-2021 19:10:00 12.3 C 10.21 g/m*3 12.3 C 0 km/h
232 27-05-2021 19:15:00 12.2 C 10.14 g/m*3 12.2 C 0 km/h
233 27-05-2021 19:20:00 12.1 C 10.08 g/m*3 12.1 C 1.6 km/h
234 27-05-2021 19:25:00 12 C 10.02 g/m*3 12 C 4.8 km/h
235 27-05-2021 19:30:00 11.8 C 9.79 g/m*3 11.8 C 6.4 km/h
236 27-05-2021 19:35:00 11.7 C 9.73 g/m*3 11.7 C 1.6 km/h
237 27-05-2021 19:40:00 11.7 C 9.83 g/m*3 11.7 C 0 km/h
238 27-05-2021 19:45:00 11.6 C 9.67 g/m*3 11.6 C 3.2 km/h
239 27-05-2021 19:50:00 11.6 C 9.77 g/m*3 11.6 C 1.6 km/h
240 27-05-2021 19:55:00 11.6 C 9.77 g/m*3 11.6 C 4.8 km/h
241 27-05-2021 20:00:00 11.5 C 9.71 g/m*3 11.5 C 4.8 km/h
242 27-05-2021 20:05:00 11.5 C 9.71 g/m*3 11.5 C 1.6 km/h
243 27-05-2021 20:10:00 11.4 C 9.65 g/m*3 11.4 C 3.2 km/h
244 27-05-2021 20:15:00 11.3 C 9.59 g/m*3 11.3 C 6.4 km/h
245 27-05-2021 20:20:00 11.2 C 9.43 g/m*3 11.2 C 3.2 km/h
246 27-05-2021 20:25:00 11.2 C 9.43 g/m*3 11.2 C 1.6 km/h
247 27-05-2021 20:30:00 11.1 C 9.47 g/m*3 11.1 C 0 km/h
248 27-05-2021 20:35:00 11.1 C 9.47 g/m*3 11.1 C 3.2 km/h
249 27-05-2021 20:40:00 11.1 C 9.47 g/m*3 11.1 C 0 km/h
250 27-05-2021 20:45:00 10.9 C 9.35 g/m*3 10.9 C 4.8 km/h
Sensor: Nr:Datum:Temp:Abs-Feuchte:Windchill:Wind:
Aussen-T/F 251 27-05-2021 20:50:00 10.9 C 9.35 g/m*3 10.9 C 1.6 km/h
252 27-05-2021 20:55:00 10.8 C 9.29 g/m*3 10.8 C 4.8 km/h
253 27-05-2021 21:00:00 10.8 C 9.19 g/m*3 10.8 C 1.6 km/h
254 27-05-2021 21:05:00 10.7 C 9.13 g/m*3 10.18 C 6.4 km/h
255 27-05-2021 21:10:00 10.7 C 9.13 g/m*3 9.81 C 8.1 km/h
256 27-05-2021 21:15:00 10.6 C 9.08 g/m*3 10.6 C 4.8 km/h
257 27-05-2021 21:20:00 10.6 C 9.08 g/m*3 10.6 C 1.6 km/h
258 27-05-2021 21:25:00 10.5 C 8.92 g/m*3 9.95 C 6.4 km/h
259 27-05-2021 21:30:00 10.5 C 8.92 g/m*3 10.5 C 4.8 km/h
260 27-05-2021 21:35:00 10.5 C 9.02 g/m*3 10.5 C 4.8 km/h
261 27-05-2021 21:40:00 10.4 C 8.96 g/m*3 10.4 C 3.2 km/h
262 27-05-2021 21:45:00 10.4 C 8.96 g/m*3 9.83 C 6.4 km/h
263 27-05-2021 21:50:00 10.4 C 8.96 g/m*3 10.4 C 4.8 km/h
264 27-05-2021 21:55:00 10.4 C 8.96 g/m*3 9.46 C 8.1 km/h
265 27-05-2021 22:00:00 10.4 C 8.96 g/m*3 10.4 C 4.8 km/h
266 27-05-2021 22:05:00 10.4 C 8.96 g/m*3 10.4 C 3.2 km/h
267 27-05-2021 22:10:00 10.4 C 8.96 g/m*3 10.4 C 4.8 km/h
268 27-05-2021 22:15:00 10.3 C 8.91 g/m*3 10.3 C 1.6 km/h
269 27-05-2021 22:20:00 10.3 C 8.91 g/m*3 10.3 C 1.6 km/h
270 27-05-2021 22:25:00 10.3 C 8.91 g/m*3 10.3 C 1.6 km/h
271 27-05-2021 22:30:00 10.2 C 8.85 g/m*3 10.2 C 1.6 km/h
272 27-05-2021 22:35:00 10.2 C 8.95 g/m*3 10.2 C 1.6 km/h
273 27-05-2021 22:40:00 10.2 C 8.95 g/m*3 10.2 C 1.6 km/h
274 27-05-2021 22:45:00 10.2 C 8.95 g/m*3 10.2 C 0 km/h
275 27-05-2021 22:50:00 10.1 C 8.89 g/m*3 10.1 C 1.6 km/h
Sensor: Nr:Datum:Temp:Abs-Feuchte:Windchill:Wind:
Aussen-T/F 276 27-05-2021 22:55:00 10.1 C 8.89 g/m*3 9.48 C 6.4 km/h
277 27-05-2021 23:00:00 10 C 8.83 g/m*3 10 C 4.8 km/h
278 27-05-2021 23:05:00 10 C 8.83 g/m*3 10 C 4.8 km/h
279 27-05-2021 23:10:00 10 C 8.83 g/m*3 10 C 4.8 km/h
280 27-05-2021 23:15:00 10 C 8.83 g/m*3 10 C 4.8 km/h
281 27-05-2021 23:20:00 10 C 8.83 g/m*3 10 C 3.2 km/h
282 27-05-2021 23:25:00 10 C 8.83 g/m*3 10 C 3.2 km/h
283 27-05-2021 23:30:00 10 C 8.93 g/m*3 10 C 3.2 km/h
284 27-05-2021 23:35:00 10 C 8.93 g/m*3 10 C 3.2 km/h
285 27-05-2021 23:40:00 10 C 8.93 g/m*3 10 C 1.6 km/h
286 27-05-2021 23:45:00 10 C 8.93 g/m*3 10 C 1.6 km/h
287 27-05-2021 23:50:00 10 C 8.93 g/m*3 10 C 1.6 km/h
288 27-05-2021 23:55:00 10 C 8.93 g/m*3 10 C 1.6 km/h

Legende:
   Min
   Max


Maximal/Minimal-Werte vom 27.05.2021 - 27.05.2021

Sensor Min Max Avg
Temp
(Aussen-T/F)
9.1 °C
27-05-2021  00:00:00
13.9 °C
27-05-2021  14:45:00
11.45 °C
Abs-Feuchte
(Aussen-T/F)
7.9 g/m*3
27-05-2021  00:00:00
10.69 g/m*3
27-05-2021  16:55:00
8.97 g/m*3
Windchill
(Aussen-T/F)
6.92 C
27-05-2021  00:15:00
13.9 C
27-05-2021  14:45:00
10.96 C

Die Daten stammen von einer Davis Vantage Pro 2 Wetter-Station und werden unter Linux mit der Software wview2wettercgi und aufbereitet. Alle Angaben erfolgen ohne Gewähr für ihre Vollständigkeit oder Richtigkeit.
Kontakt: Rainer Krienke krienke@uni-koblenz.de . Meine Webseiten an der Uni Koblenz oder privat.
Version: $Revision: 0.78 $